Observation data for Tatum on 05/15/2018      Previous  Date  Next       Current Mesonet Observations  Soil Data  Daily Summary Page  Observations in Plain Language
KTAT 150500Z 19009KT 20/03 A2997 RMK A01 T01990030  RH  033%=      5-min Rain = 0
KTAT 150505Z 19008KT 20/03 A2997 RMK A01 T01990031  RH  033%=      5-min Rain = 0
KTAT 150510Z 19008KT 20/03 A2997 RMK A01 T01970030  RH  034%=      5-min Rain = 0
KTAT 150515Z 20008KT 20/03 A2997 RMK A01 T01960030  RH  034%=      5-min Rain = 0
KTAT 150520Z 19009KT 20/03 A2998 RMK A01 T01970031  RH  034%=      5-min Rain = 0
KTAT 150525Z 20009KT 20/03 A2998 RMK A01 T01950031  RH  034%=      5-min Rain = 0
KTAT 150530Z 20008KT 19/03 A2997 RMK A01 T01930032  RH  035%=      5-min Rain = 0
KTAT 150535Z 20009KT 19/03 A2998 RMK A01 T01930034  RH  036%=      5-min Rain = 0
KTAT 150540Z 21009KT 19/04 A2998 RMK A01 T01930035  RH  036%=      5-min Rain = 0
KTAT 150545Z 20009KT 19/04 A2998 RMK A01 T01930036  RH  036%=      5-min Rain = 0
KTAT 150550Z 20009KT 19/04 A2998 RMK A01 T01910035  RH  036%=      5-min Rain = 0
KTAT 150555Z 20010KT 19/04 A2997 RMK A01 T01880037  RH  037%=      5-min Rain = 0
KTAT 150600Z 21009KT 19/04 A2997 RMK A01 T01870039  RH  038%=      5-min Rain = 0
KTAT 150605Z 21009KT 19/04 A2997 RMK A01 T01860041  RH  039%=      5-min Rain = 0
KTAT 150610Z 20009KT 18/04 A2997 RMK A01 T01840042  RH  040%=      5-min Rain = 0
KTAT 150615Z 20009KT 18/04 A2997 RMK A01 T01840043  RH  040%=      5-min Rain = 0
KTAT 150620Z 20008KT 18/04 A2997 RMK A01 T01820044  RH  041%=      5-min Rain = 0
KTAT 150625Z 19007KT 18/04 A2997 RMK A01 T01780044  RH  042%=      5-min Rain = 0
KTAT 150630Z 14010KT 17/04 A2998 RMK A01 T01680044  RH  045%=      5-min Rain = 0
KTAT 150635Z 15012KT 18/05 A2999 RMK A01 T01790051  RH  044%=      5-min Rain = 0
KTAT 150640Z 16012G17KT 19/06 A2998 RMK A01 T01880055  RH  042%=      5-min Rain = 0
KTAT 150645Z 16014KT 19/06 A2998 RMK A01 T01940056  RH  041%=      5-min Rain = 0
KTAT 150650Z 16014KT 20/06 A2999 RMK A01 T01950057  RH  041%=      5-min Rain = 0
KTAT 150655Z 16013KT 19/06 A2999 RMK A01 T01940057  RH  042%=      5-min Rain = 0
KTAT 150700Z 17014KT 19/06 A2999 RMK A01 T01930059  RH  043%=      5-min Rain = 0
KTAT 150705Z 18013KT 19/06 A2998 RMK A01 T01930061  RH  043%=      5-min Rain = 0
KTAT 150710Z 18013KT 19/06 A2998 RMK A01 T01920063  RH  044%=      5-min Rain = 0
KTAT 150715Z 17013KT 19/07 A2999 RMK A01 T01910065  RH  045%=      5-min Rain = 0
KTAT 150720Z 17012KT 19/07 A2999 RMK A01 T01880065  RH  046%=      5-min Rain = 0
KTAT 150725Z 17011KT 19/07 A2999 RMK A01 T01850066  RH  047%=      5-min Rain = 0
KTAT 150730Z 17011KT 18/07 A2999 RMK A01 T01810067  RH  048%=      5-min Rain = 0
KTAT 150735Z 17010KT 18/07 A2998 RMK A01 T01790069  RH  050%=      5-min Rain = 0
KTAT 150740Z 18010KT 18/07 A2998 RMK A01 T01770071  RH  051%=      5-min Rain = 0
KTAT 150745Z 18010KT 18/07 A2998 RMK A01 T01760074  RH  052%=      5-min Rain = 0
KTAT 150750Z 18010KT 17/08 A2998 RMK A01 T01740076  RH  054%=      5-min Rain = 0
KTAT 150755Z 17010KT 17/08 A2998 RMK A01 T01730078  RH  055%=      5-min Rain = 0
KTAT 150800Z 18009KT 17/08 A2998 RMK A01 T01720079  RH  056%=      5-min Rain = 0
KTAT 150805Z 17008KT 17/08 A2998 RMK A01 T01690079  RH  057%=      5-min Rain = 0
KTAT 150810Z 17008KT 16/08 A2998 RMK A01 T01640079  RH  058%=      5-min Rain = 0
KTAT 150815Z 17009KT 16/08 A2998 RMK A01 T01600080  RH  060%=      5-min Rain = 0
KTAT 150820Z 17009KT 16/08 A2998 RMK A01 T01590082  RH  062%=      5-min Rain = 0
KTAT 150825Z 18009KT 16/08 A2998 RMK A01 T01600084  RH  062%=      5-min Rain = 0
KTAT 150830Z 18009KT 16/09 A2998 RMK A01 T01600085  RH  063%=      5-min Rain = 0
KTAT 150835Z 18008KT 16/09 A2998 RMK A01 T01590086  RH  064%=      5-min Rain = 0
KTAT 150840Z 18008KT 16/09 A2998 RMK A01 T01570085  RH  064%=      5-min Rain = 0
KTAT 150845Z 17008KT 15/09 A2998 RMK A01 T01540085  RH  065%=      5-min Rain = 0
KTAT 150850Z 16008KT 15/09 A2998 RMK A01 T01520087  RH  067%=      5-min Rain = 0
KTAT 150855Z 17008KT 15/09 A2998 RMK A01 T01520091  RH  069%=      5-min Rain = 0
KTAT 150900Z 17008KT 15/09 A2998 RMK A01 T01520094  RH  071%=      5-min Rain = 0
KTAT 150905Z 17008KT 15/10 A2998 RMK A01 T01540098  RH  072%=      5-min Rain = 0
KTAT 150910Z 17008KT 16/10 A2998 RMK A01 T01550101  RH  073%=      5-min Rain = 0
KTAT 150915Z 17007KT 16/10 A2998 RMK A01 T01550102  RH  073%=      5-min Rain = 0
KTAT 150920Z 17008KT 15/10 A2998 RMK A01 T01530103  RH  074%=      5-min Rain = 0
KTAT 150925Z 17008KT 15/11 A2998 RMK A01 T01530105  RH  076%=      5-min Rain = 0
KTAT 150930Z 18007KT 15/11 A2998 RMK A01 T01530106  RH  076%=      5-min Rain = 0
KTAT 150935Z 19007KT 15/10 A2998 RMK A01 T01520104  RH  076%=      5-min Rain = 0
KTAT 150940Z 18006KT 15/10 A2998 RMK A01 T01480101  RH  076%=      5-min Rain = 0
KTAT 150945Z 18006KT 14/10 A2999 RMK A01 T01440099  RH  077%=      5-min Rain = 0
KTAT 150950Z 18006KT 14/10 A2999 RMK A01 T01400099  RH  079%=      5-min Rain = 0
KTAT 150955Z 18005KT 14/10 A2999 RMK A01 T01380098  RH  080%=      5-min Rain = 0
KTAT 151000Z 19005KT 14/10 A2999 RMK A01 T01360098  RH  080%=      5-min Rain = 0
KTAT 151005Z 19005KT 13/10 A2999 RMK A01 T01340096  RH  081%=      5-min Rain = 0
KTAT 151010Z 20004KT 13/09 A30 RMK A01 T01300093  RH  081%=      5-min Rain = 0
KTAT 151015Z 19004KT 13/09 A30 RMK A01 T01260091  RH  081%=      5-min Rain = 0
KTAT 151020Z 18005KT 13/10 A30 RMK A01 T01270095  RH  083%=      5-min Rain = 0
KTAT 151025Z 17005KT 13/10 A30 RMK A01 T01280095  RH  083%=      5-min Rain = 0
KTAT 151030Z 16005KT 13/10 A30 RMK A01 T01270096  RH  084%=      5-min Rain = 0
KTAT 151035Z 16005KT 13/10 A30 RMK A01 T01260096  RH  085%=      5-min Rain = 0
KTAT 151040Z 18005KT 13/10 A30 RMK A01 T01260098  RH  086%=      5-min Rain = 0
KTAT 151045Z 20005KT 13/10 A30 RMK A01 T01260098  RH  086%=      5-min Rain = 0
KTAT 151050Z 20005KT 13/10 A30 RMK A01 T01250097  RH  085%=      5-min Rain = 0
KTAT 151055Z 20004KT 12/10 A30 RMK A01 T01230095  RH  086%=      5-min Rain = 0
KTAT 151100Z 21004KT 12/10 A30 RMK A01 T01220096  RH  087%=      5-min Rain = 0
KTAT 151105Z 23003KT 12/09 A30 RMK A01 T01180089  RH  085%=      5-min Rain = 0
KTAT 151110Z 25003KT 12/09 A30 RMK A01 T01160090  RH  087%=      5-min Rain = 0
KTAT 151115Z 22005KT 12/09 A30 RMK A01 T01170094  RH  089%=      5-min Rain = 0
KTAT 151120Z 21005KT 12/10 A30 RMK A01 T01180095  RH  088%=      5-min Rain = 0
KTAT 151125Z 20005KT 12/09 A3001 RMK A01 T01160091  RH  087%=      5-min Rain = 0
KTAT 151130Z 20005KT 11/09 A3001 RMK A01 T01140089  RH  087%=      5-min Rain = 0
KTAT 151135Z 20006KT 11/09 A3001 RMK A01 T01110085  RH  087%=      5-min Rain = 0
KTAT 151140Z 21006KT 11/09 A3001 RMK A01 T01100087  RH  088%=      5-min Rain = 0
KTAT 151145Z 21006KT 11/09 A3001 RMK A01 T01090086  RH  088%=      5-min Rain = 0
KTAT 151150Z 21006KT 11/09 A3001 RMK A01 T01080085  RH  088%=      5-min Rain = 0
KTAT 151155Z 21006KT 11/09 A3001 RMK A01 T01100089  RH  090%=      5-min Rain = 0
KTAT 151200Z 21006KT 11/09 A3001 RMK A01 T01120092  RH  090%=      5-min Rain = 0
KTAT 151205Z 20007KT 11/09 A3001 RMK A01 T01120091  RH  089%=      5-min Rain = 0
KTAT 151210Z 21007KT 11/09 A3001 RMK A01 T01130093  RH  090%=      5-min Rain = 0
KTAT 151215Z 21006KT 12/10 A3002 RMK A01 T01150095  RH  090%=      5-min Rain = 0
KTAT 151220Z 21007KT 12/10 A3002 RMK A01 T01190099  RH  091%=      5-min Rain = 0
KTAT 151225Z 21007KT 12/11 A3002 RMK A01 T01240105  RH  091%=      5-min Rain = 0
KTAT 151230Z 21007KT 13/11 A3002 RMK A01 T01290109  RH  091%=      5-min Rain = 0
KTAT 151235Z 21007KT 13/11 A3002 RMK A01 T01340112  RH  090%=      5-min Rain = 0
KTAT 151240Z 21007KT 14/12 A3002 RMK A01 T01400117  RH  089%=      5-min Rain = 0
KTAT 151245Z 22006KT 15/12 A3003 RMK A01 T01450120  RH  088%=      5-min Rain = 0
KTAT 151250Z 22006KT 15/12 A3003 RMK A01 T01510123  RH  087%=      5-min Rain = 0
KTAT 151255Z 22006KT 16/12 A3003 RMK A01 T01550124  RH  085%=      5-min Rain = 0
KTAT 151300Z 21007KT 16/13 A3003 RMK A01 T01590126  RH  084%=      5-min Rain = 0
KTAT 151305Z 21008KT 16/13 A3003 RMK A01 T01640128  RH  082%=      5-min Rain = 0
KTAT 151310Z 21009KT 17/13 A3003 RMK A01 T01690130  RH  081%=      5-min Rain = 0
KTAT 151315Z 21009KT 17/13 A3003 RMK A01 T01740133  RH  080%=      5-min Rain = 0
KTAT 151320Z 21010KT 18/14 A3003 RMK A01 T01800135  RH  078%=      5-min Rain = 0
KTAT 151325Z 21012KT 19/14 A3003 RMK A01 T01850136  RH  077%=      5-min Rain = 0
KTAT 151330Z 21012KT 19/14 A3003 RMK A01 T01870137  RH  076%=      5-min Rain = 0
KTAT 151335Z 21013KT 19/14 A3003 RMK A01 T01910137  RH  074%=      5-min Rain = 0
KTAT 151340Z 21012KT 20/14 A3003 RMK A01 T01960136  RH  071%=      5-min Rain = 0
KTAT 151345Z 21012KT 20/13 A3003 RMK A01 T02020134  RH  068%=      5-min Rain = 0
KTAT 151350Z 21013KT 21/13 A3003 RMK A01 T02070132  RH  065%=      5-min Rain = 0
KTAT 151355Z 21013KT 21/13 A3004 RMK A01 T02110130  RH  062%=      5-min Rain = 0
KTAT 151400Z 21013KT 22/13 A3004 RMK A01 T02150128  RH  060%=      5-min Rain = 0
KTAT 151405Z 21013KT 22/13 A3004 RMK A01 T02190126  RH  058%=      5-min Rain = 0
KTAT 151410Z 21013KT 22/13 A3004 RMK A01 T02230126  RH  057%=      5-min Rain = 0
KTAT 151415Z 21012KT 23/13 A3004 RMK A01 T02250125  RH  055%=      5-min Rain = 0
KTAT 151420Z 21011KT 23/12 A3004 RMK A01 T02280123  RH  054%=      5-min Rain = 0
KTAT 151425Z 22010KT 23/12 A3004 RMK A01 T02330123  RH  052%=      5-min Rain = 0
KTAT 151430Z 22011KT 24/12 A3005 RMK A01 T02370118  RH  049%=      5-min Rain = 0
KTAT 151435Z 22010KT 24/12 A3005 RMK A01 T02400118  RH  048%=      5-min Rain = 0
KTAT 151440Z 24008KT 24/12 A3005 RMK A01 T02420115  RH  046%=      5-min Rain = 0
KTAT 151445Z 23009KT 25/11 A3005 RMK A01 T02470112  RH  044%=      5-min Rain = 0
KTAT 151450Z 23008KT 25/11 A3005 RMK A01 T02530107  RH  041%=      5-min Rain = 0
KTAT 151455Z 24008KT 26/10 A3005 RMK A01 T02580100  RH  038%=      5-min Rain = 0
KTAT 151500Z 25008KT 26/09 A3005 RMK A01 T02600093  RH  036%=      5-min Rain = 0
KTAT 151505Z 25008KT 26/09 A3005 RMK A01 T02630090  RH  035%=      5-min Rain = 0
KTAT 151510Z 27009KT 27/08 A3006 RMK A01 T02670084  RH  032%=      5-min Rain = 0
KTAT 151515Z 28009KT 27/08 A3006 RMK A01 T02690077  RH  030%=      5-min Rain = 0
KTAT 151520Z 29008KT 28/07 A3006 RMK A01 T02750073  RH  029%=      5-min Rain = 0
KTAT 151525Z 30009G14KT 28/07 A3006 RMK A01 T02770069  RH  027%=      5-min Rain = 0
KTAT 151530Z 30011KT 28/05 A3006 RMK A01 T02810052  RH  024%=      5-min Rain = 0
KTAT 151535Z 30009KT 28/05 A3006 RMK A01 T02820047  RH  023%=      5-min Rain = 0
KTAT 151540Z 31009KT 28/04 A3006 RMK A01 T02840040  RH  021%=      5-min Rain = 0
KTAT 151545Z 31010G15KT 29/02 A3006 RMK A01 T02870019  RH  018%=      5-min Rain = 0
KTAT 151550Z 31008G13KT 29/01 A3006 RMK A01 T02890012  RH  017%=      5-min Rain = 0
KTAT 151555Z 33010G15KT 29/01 A3006 RMK A01 T02890012  RH  017%=      5-min Rain = 0
KTAT 151600Z 33009KT 29/01 A3006 RMK A01 T02880008  RH  017%=      5-min Rain = 0
KTAT 151605Z 33008KT 29/01 A3006 RMK A01 T02900008  RH  016%=      5-min Rain = 0
KTAT 151610Z 34007KT 29/01 A3006 RMK A01 T02920010  RH  016%=      5-min Rain = 0
KTAT 151615Z 30009KT 29/02 A3006 RMK A01 T02930023  RH  018%=      5-min Rain = 0
KTAT 151620Z 29009G14KT 29/02 A3006 RMK A01 T02920024  RH  018%=      5-min Rain = 0
KTAT 151625Z 32008KT 29/03 A3006 RMK A01 T02930025  RH  018%=      5-min Rain = 0
KTAT 151630Z 32010KT 29/03 A3007 RMK A01 T02930032  RH  019%=      5-min Rain = 0
KTAT 151635Z 33010G15KT 29/03 A3006 RMK A01 T02910031  RH  019%=      5-min Rain = 0
KTAT 151640Z 33011G16KT 29/03 A3006 RMK A01 T02900027  RH  019%=      5-min Rain = 0
KTAT 151645Z 33008G14KT 29/03 A3007 RMK A01 T02910028  RH  019%=      5-min Rain = 0
KTAT 151650Z 34008KT 29/03 A3007 RMK A01 T02930031  RH  019%=      5-min Rain = 0
KTAT 151655Z 33008KT 29/03 A3007 RMK A01 T02910032  RH  019%=      5-min Rain = 0
KTAT 151700Z 33006G11KT 29/03 A3007 RMK A01 T02930034  RH  019%=      5-min Rain = 0
KTAT 151705Z 34008G14KT 30/04 A3007 RMK A01 T02970040  RH  020%=      5-min Rain = 0
KTAT 151710Z 33010G16KT 30/05 A3007 RMK A01 T02950045  RH  021%=      5-min Rain = 0
KTAT 151715Z 34008G13KT 30/05 A3007 RMK A01 T02950047  RH  021%=      5-min Rain = 0
KTAT 151720Z 34010KT 30/05 A3007 RMK A01 T02970048  RH  021%=      5-min Rain = 0
KTAT 151725Z 34009G14KT 30/05 A3007 RMK A01 T02980049  RH  021%=      5-min Rain = 0
KTAT 151730Z 35010G15KT 30/05 A3007 RMK A01 T03000050  RH  021%=      5-min Rain = 0
KTAT 151735Z 35008G13KT 30/05 A3007 RMK A01 T03020048  RH  020%=      5-min Rain = 0
KTAT 151740Z 35009G14KT 30/05 A3007 RMK A01 T03020049  RH  021%=      5-min Rain = 0
KTAT 151745Z 01010G15KT 30/05 A3006 RMK A01 T03030048  RH  020%=      5-min Rain = 0
KTAT 151750Z 35007KT 30/04 A3006 RMK A01 T03030044  RH  020%=      5-min Rain = 0
KTAT 151755Z 31007KT 31/04 A3006 RMK A01 T03050044  RH  020%=      5-min Rain = 0
KTAT 151800Z 35008KT 31/04 A3006 RMK A01 T03060044  RH  019%=      5-min Rain = 0
KTAT 151805Z 00009KT 31/05 A3006 RMK A01 T03070046  RH  020%=      5-min Rain = 0
KTAT 151810Z 35008KT 31/05 A3006 RMK A01 T03070045  RH  019%=      5-min Rain = 0
KTAT 151815Z 35008G15KT 31/05 A3006 RMK A01 T03060048  RH  020%=      5-min Rain = 0
KTAT 151820Z 00010KT 31/05 A3006 RMK A01 T03070054  RH  021%=      5-min Rain = 0
KTAT 151825Z 35007G13KT 31/05 A3006 RMK A01 T03090050  RH  020%=      5-min Rain = 0
KTAT 151830Z 36008G14KT 31/04 A3006 RMK A01 T03080037  RH  018%=      5-min Rain = 0
KTAT 151835Z 08004KT 32/04 A3005 RMK A01 T03150036  RH  018%=      5-min Rain = 0
KTAT 151840Z 35009KT 32/03 A3005 RMK A01 T03170033  RH  017%=      5-min Rain = 0
KTAT 151845Z 00008G15KT 31/03 A3005 RMK A01 T03120032  RH  017%=      5-min Rain = 0
KTAT 151850Z 33009G16KT 31/03 A3005 RMK A01 T03130031  RH  017%=      5-min Rain = 0
KTAT 151855Z 35009G16KT 31/03 A3005 RMK A01 T03120030  RH  017%=      5-min Rain = 0
KTAT 151900Z 01006KT 31/02 A3005 RMK A01 T03110020  RH  016%=      5-min Rain = 0
KTAT 151905Z 02004G12KT 31/02 A3005 RMK A01 T03100015  RH  015%=      5-min Rain = 0
KTAT 151910Z 33008KT 32/02 A3005 RMK A01 T03170022  RH  016%=      5-min Rain = 0
KTAT 151915Z 34002G7KT 31/02 A3005 RMK A01 T03120021  RH  016%=      5-min Rain = 0
KTAT 151920Z 33004G10KT 32/03 A3004 RMK A01 T03190025  RH  016%=      5-min Rain = 0
KTAT 151925Z 35003G9KT 32/02 A3004 RMK A01 T03160021  RH  016%=      5-min Rain = 0
KTAT 151930Z 33008G14KT 32/02 A3004 RMK A01 T03180018  RH  015%=      5-min Rain = 0
KTAT 151935Z 29008G13KT 32/02 A3004 RMK A01 T03210016  RH  015%=      5-min Rain = 0
KTAT 151940Z 31004G14KT 32/02 A3003 RMK A01 T03190015  RH  015%=      5-min Rain = 0
KTAT 151945Z 01007G12KT 32/02 A3003 RMK A01 T03200015  RH  015%=      5-min Rain = 0
KTAT 151950Z 02004G9KT 32/01 A3003 RMK A01 T03180013  RH  015%=      5-min Rain = 0
KTAT 151955Z 32007G14KT 32/02 A3003 RMK A01 T03230015  RH  014%=      5-min Rain = 0
KTAT 152000Z 35010G15KT 33/01 A3003 RMK A01 T03250010  RH  014%=      5-min Rain = 0
KTAT 152005Z 33007KT 32/01 A3003 RMK A01 T03210010  RH  014%=      5-min Rain = 0
KTAT 152010Z 30008G15KT 32/01 A3002 RMK A01 T03230010  RH  014%=      5-min Rain = 0
KTAT 152015Z 05003G8KT 32/01 A3002 RMK A01 T03220009  RH  014%=      5-min Rain = 0
KTAT 152020Z 24002KT 33/01 A3002 RMK A01 T03290011  RH  013%=      5-min Rain = 0
KTAT 152025Z 27005KT 33/01 A3002 RMK A01 T03320010  RH  013%=      5-min Rain = 0
KTAT 152030Z 24008G16KT 33/01 A3001 RMK A01 T03300009  RH  013%=      5-min Rain = 0
KTAT 152035Z 25004KT 33/01 A3001 RMK A01 T03280007  RH  013%=      5-min Rain = 0
KTAT 152040Z 33004KT 32/01 A3001 RMK A01 T03240006  RH  013%=      5-min Rain = 0
KTAT 152045Z 32007KT 32/01 A3001 RMK A01 T03240006  RH  013%=      5-min Rain = 0
KTAT 152050Z 32005G14KT 33/01 A30 RMK A01 T03260006  RH  013%=      5-min Rain = 0
KTAT 152055Z 36009G14KT 33/01 A30 RMK A01 T03310005  RH  013%=      5-min Rain = 0
KTAT 152100Z 01006KT 33/01 A30 RMK A01 T03320006  RH  013%=      5-min Rain = 0
KTAT 152105Z 32006KT 32/00 A30 RMK A01 T03240004  RH  013%=      5-min Rain = 0
KTAT 152110Z 30007G14KT 32/M00 A2999 RMK A01 T03181001  RH  013%=      5-min Rain = 0
KTAT 152115Z 29011KT 32/M00 A2999 RMK A01 T03191003  RH  013%=      5-min Rain = 0
KTAT 152120Z 29007G13KT 33/M00 A2999 RMK A01 T03281004  RH  012%=      5-min Rain = 0
KTAT 152125Z 29007KT 33/M01 A2999 RMK A01 T03291007  RH  012%=      5-min Rain = 0
KTAT 152130Z 26004KT 33/M01 A2998 RMK A01 T03321006  RH  012%=      5-min Rain = 0
KTAT 152135Z 27008G13KT 33/M01 A2998 RMK A01 T03261007  RH  012%=      5-min Rain = 0
KTAT 152140Z 29008KT 32/M00 A2998 RMK A01 T03241004  RH  012%=      5-min Rain = 0
KTAT 152145Z 31007G16KT 33/M01 A2997 RMK A01 T03311009  RH  011%=      5-min Rain = 0
KTAT 152150Z 29009G15KT 34/M02 A2997 RMK A01 T03351023  RH  010%=      5-min Rain = 0
KTAT 152155Z 27006G11KT 34/M03 A2997 RMK A01 T03381025  RH  010%=      5-min Rain = 0
KTAT 152200Z 28009G16KT 34/M03 A2996 RMK A01 T03371032  RH  009%=      5-min Rain = 0
KTAT 152205Z 24011G19KT 34/M04 A2996 RMK A01 T03421044  RH  008%=      5-min Rain = 0
KTAT 152210Z 25012G24KT 34/M05 A2997 RMK A01 T03391046  RH  008%=      5-min Rain = 0
KTAT 152215Z 26010KT 34/M05 A2996 RMK A01 T03381046  RH  008%=      5-min Rain = 0
KTAT 152220Z 27009G15KT 34/M05 A2996 RMK A01 T03361046  RH  008%=      5-min Rain = 0
KTAT 152225Z 24011G20KT 34/M04 A2996 RMK A01 T03381043  RH  009%=      5-min Rain = 0
KTAT 152230Z 24011G19KT 34/M04 A2996 RMK A01 T03421041  RH  008%=      5-min Rain = 0
KTAT 152235Z 24014G19KT 34/M05 A2996 RMK A01 T03391045  RH  008%=      5-min Rain = 0
KTAT 152240Z 25010G17KT 34/M04 A2996 RMK A01 T03391042  RH  009%=      5-min Rain = 0
KTAT 152245Z 25008G13KT 34/M04 A2996 RMK A01 T03381041  RH  009%=      5-min Rain = 0
KTAT 152250Z 26009G14KT 34/M05 A2995 RMK A01 T03401045  RH  008%=      5-min Rain = 0
KTAT 152255Z 27008G16KT 34/M04 A2995 RMK A01 T03361042  RH  009%=      5-min Rain = 0
KTAT 152300Z 27010KT 33/M04 A2995 RMK A01 T03331039  RH  009%=      5-min Rain = 0
KTAT 152305Z 25008KT 33/M04 A2995 RMK A01 T03261042  RH  009%=      5-min Rain = 0
KTAT 152310Z 27009KT 34/M05 A2995 RMK A01 T03371047  RH  008%=      5-min Rain = 0
KTAT 152315Z 24007G12KT 34/M04 A2994 RMK A01 T03371043  RH  009%=      5-min Rain = 0
KTAT 152320Z 21010G18KT 34/M04 A2994 RMK A01 T03421037  RH  009%=      5-min Rain = 0
KTAT 152325Z 22009G14KT 34/M04 A2994 RMK A01 T03421041  RH  008%=      5-min Rain = 0
KTAT 152330Z 24015G21KT 34/M05 A2994 RMK A01 T03351046  RH  008%=      5-min Rain = 0
KTAT 152335Z 24013G18KT 33/M05 A2994 RMK A01 T03271047  RH  009%=      5-min Rain = 0
KTAT 152340Z 23011KT 33/M05 A2994 RMK A01 T03281048  RH  009%=      5-min Rain = 0
KTAT 152345Z 23009KT 32/M05 A2994 RMK A01 T03211046  RH  009%=      5-min Rain = 0
KTAT 152350Z 24009KT 33/M05 A2994 RMK A01 T03321045  RH  009%=      5-min Rain = 0
KTAT 152355Z 25009KT 34/M05 A2993 RMK A01 T03351045  RH  009%=      5-min Rain = 0
KTAT 160000Z 22010G18KT 34/M04 A2993 RMK A01 T03351044  RH  009%=      5-min Rain = 0
KTAT 160005Z 22013KT 34/M04 A2993 RMK A01 T03351043  RH  009%=      5-min Rain = 0
KTAT 160010Z 21013KT 33/M05 A2993 RMK A01 T03341045  RH  009%=      5-min Rain = 0
KTAT 160015Z 22015G21KT 33/M05 A2993 RMK A01 T03331048  RH  008%=      5-min Rain = 0
KTAT 160020Z 22010KT 33/M05 A2993 RMK A01 T03331048  RH  008%=      5-min Rain = 0
KTAT 160025Z 24010G15KT 33/M05 A2993 RMK A01 T03321049  RH  008%=      5-min Rain = 0
KTAT 160030Z 24008KT 33/M05 A2993 RMK A01 T03291049  RH  008%=      5-min Rain = 0
KTAT 160035Z 23008KT 33/M05 A2993 RMK A01 T03291049  RH  009%=      5-min Rain = 0
KTAT 160040Z 23011G17KT 33/M05 A2993 RMK A01 T03281049  RH  009%=      5-min Rain = 0
KTAT 160045Z 22013KT 33/M05 A2993 RMK A01 T03251051  RH  009%=      5-min Rain = 0
KTAT 160050Z 21011KT 32/M05 A2993 RMK A01 T03231050  RH  009%=      5-min Rain = 0
KTAT 160055Z 22009KT 32/M05 A2993 RMK A01 T03201049  RH  009%=      5-min Rain = 0
KTAT 160100Z 22009KT 32/M05 A2993 RMK A01 T03181048  RH  009%=      5-min Rain = 0
KTAT 160105Z 22008KT 32/M05 A2993 RMK A01 T03151048  RH  009%=      5-min Rain = 0
KTAT 160110Z 22007KT 31/M05 A2993 RMK A01 T03121047  RH  010%=      5-min Rain = 0
KTAT 160115Z 22007KT 31/M05 A2993 RMK A01 T03081047  RH  010%=      5-min Rain = 0
KTAT 160120Z 21007KT 30/M05 A2993 RMK A01 T03031047  RH  010%=      5-min Rain = 0
KTAT 160125Z 21007KT 30/M05 A2993 RMK A01 T02971047  RH  010%=      5-min Rain = 0
KTAT 160130Z 21007KT 29/M05 A2993 RMK A01 T02891048  RH  011%=      5-min Rain = 0
KTAT 160135Z 21007KT 28/M05 A2994 RMK A01 T02811049  RH  011%=      5-min Rain = 0
KTAT 160140Z 22008KT 27/M05 A2994 RMK A01 T02731051  RH  012%=      5-min Rain = 0
KTAT 160145Z 21009KT 26/M05 A2994 RMK A01 T02631051  RH  012%=      5-min Rain = 0
KTAT 160150Z 22008KT 26/M05 A2994 RMK A01 T02561051  RH  013%=      5-min Rain = 0
KTAT 160155Z 21009KT 25/M05 A2994 RMK A01 T02481051  RH  013%=      5-min Rain = 0
KTAT 160200Z 21009KT 24/M05 A2994 RMK A01 T02441051  RH  014%=      5-min Rain = 0
KTAT 160205Z 20009KT 24/M05 A2994 RMK A01 T02431050  RH  014%=      5-min Rain = 0
KTAT 160210Z 20008KT 24/M05 A2994 RMK A01 T02391050  RH  014%=      5-min Rain = 0
KTAT 160215Z 20008KT 23/M05 A2994 RMK A01 T02341050  RH  015%=      5-min Rain = 0
KTAT 160220Z 20010KT 23/M05 A2995 RMK A01 T02281050  RH  015%=      5-min Rain = 0
KTAT 160225Z 19009KT 23/M05 A2995 RMK A01 T02251049  RH  016%=      5-min Rain = 0
KTAT 160230Z 19006KT 22/M05 A2995 RMK A01 T02231049  RH  016%=      5-min Rain = 0
KTAT 160235Z 18006KT 22/M05 A2996 RMK A01 T02181050  RH  016%=      5-min Rain = 0
KTAT 160240Z 18005KT 22/M05 A2996 RMK A01 T02161051  RH  016%=      5-min Rain = 0
KTAT 160245Z 18005KT 22/M05 A2996 RMK A01 T02151051  RH  016%=      5-min Rain = 0
KTAT 160250Z 18006KT 22/M05 A2996 RMK A01 T02161051  RH  016%=      5-min Rain = 0
KTAT 160255Z 19006KT 22/M05 A2996 RMK A01 T02151051  RH  016%=      5-min Rain = 0
KTAT 160300Z 20006KT 21/M05 A2996 RMK A01 T02131052  RH  016%=      5-min Rain = 0
KTAT 160305Z 21005KT 21/M05 A2997 RMK A01 T02111052  RH  017%=      5-min Rain = 0
KTAT 160310Z 20005KT 21/M05 A2997 RMK A01 T02141051  RH  016%=      5-min Rain = 0
KTAT 160315Z 19006KT 21/M05 A2997 RMK A01 T02121052  RH  017%=      5-min Rain = 0
KTAT 160320Z 19007KT 21/M05 A2997 RMK A01 T02061046  RH  018%=      5-min Rain = 0
KTAT 160325Z 16009G15KT 20/M04 A2998 RMK A01 T01971041  RH  020%=      5-min Rain = 0
KTAT 160330Z 13013KT 21/00 A2999 RMK A01 T02110002  RH  025%=      5-min Rain = 0
KTAT 160335Z 14010KT 23/02 A30 RMK A01 T02310024  RH  026%=      5-min Rain = 0
KTAT 160340Z 13009KT 23/03 A30 RMK A01 T02290032  RH  028%=      5-min Rain = 0
KTAT 160345Z 10009KT 23/04 A3001 RMK A01 T02280042  RH  030%=      5-min Rain = 0
KTAT 160350Z 09010KT 23/05 A3001 RMK A01 T02280045  RH  031%=      5-min Rain = 0
KTAT 160355Z 11011G16KT 23/07 A3002 RMK A01 T02290071  RH  037%=      5-min Rain = 0
KTAT 160400Z 12011KT 23/09 A3002 RMK A01 T02280088  RH  042%=      5-min Rain = 0
KTAT 160405Z 11012KT 23/09 A3002 RMK A01 T02260094  RH  044%=      5-min Rain = 0
KTAT 160410Z 11012KT 23/10 A3002 RMK A01 T02250097  RH  046%=      5-min Rain = 0
KTAT 160415Z 11013G18KT 22/10 A3003 RMK A01 T02230100  RH  047%=      5-min Rain = 0
KTAT 160420Z 12013KT 22/10 A3003 RMK A01 T02200100  RH  048%=      5-min Rain = 0
KTAT 160425Z 12013KT 22/10 A3003 RMK A01 T02190100  RH  048%=      5-min Rain = 0
KTAT 160430Z 11011KT 22/10 A3003 RMK A01 T02160100  RH  049%=      5-min Rain = 0
KTAT 160435Z 10013G19KT 22/10 A3003 RMK A01 T02150101  RH  049%=      5-min Rain = 0
KTAT 160440Z 11013KT 22/10 A3003 RMK A01 T02160101  RH  050%=      5-min Rain = 0
KTAT 160445Z 11011KT 21/10 A3004 RMK A01 T02130101  RH  050%=      5-min Rain = 0
KTAT 160450Z 10010KT 21/10 A3004 RMK A01 T02100100  RH  051%=      5-min Rain = 0
KTAT 160455Z 09009KT 21/10 A3004 RMK A01 T02050098  RH  052%=      5-min Rain = 0

Page generated in 0.0093 seconds.